createdAt,value
2022-08-17T00:00:12.795Z,17.90
2022-08-17T00:04:31.679Z,17.80
2022-08-17T00:08:46.228Z,17.90
2022-08-17T00:12:48.474Z,18.00
2022-08-17T00:16:57.395Z,18.00
2022-08-17T00:21:00.746Z,18.20
2022-08-17T00:25:05.375Z,18.20
2022-08-17T00:29:08.595Z,18.10
2022-08-17T00:33:17.218Z,17.60
2022-08-17T00:37:19.276Z,17.80
2022-08-17T00:41:25.342Z,17.80
2022-08-17T00:45:28.106Z,17.80
2022-08-17T00:49:31.403Z,17.70
2022-08-17T00:53:36.237Z,17.70
2022-08-17T00:57:46.890Z,17.50
2022-08-17T01:01:50.706Z,17.50
2022-08-17T01:05:56.916Z,17.30
2022-08-17T01:10:00.456Z,17.30
2022-08-17T01:14:02.396Z,17.30
2022-08-17T01:18:07.899Z,17.20
2022-08-17T01:22:11.364Z,17.30
2022-08-17T01:26:13.772Z,17.30
2022-08-17T01:30:58.091Z,17.30
2022-08-17T01:34:43.968Z,17.50
2022-08-17T01:38:52.338Z,17.60
2022-08-17T01:43:01.547Z,17.60
2022-08-17T01:47:04.277Z,17.60
2022-08-17T01:51:07.699Z,17.20
2022-08-17T01:55:10.607Z,17.10
2022-08-17T01:59:13.404Z,16.60
2022-08-17T02:03:18.912Z,16.40
2022-08-17T02:07:21.021Z,16.60
2022-08-17T02:11:29.168Z,16.60
2022-08-17T02:15:34.637Z,16.70
2022-08-17T02:19:36.572Z,16.80
2022-08-17T02:23:44.859Z,16.90
2022-08-17T02:27:47.015Z,16.80
2022-08-17T02:31:49.141Z,16.50
2022-08-17T02:35:50.999Z,16.40
2022-08-17T02:39:53.188Z,16.50
2022-08-17T02:43:55.625Z,16.50
2022-08-17T02:47:57.574Z,16.40
2022-08-17T02:52:02.250Z,16.40
2022-08-17T02:56:04.530Z,16.20
2022-08-17T03:00:11.545Z,16.20
2022-08-17T03:04:13.477Z,16.20
2022-08-17T03:08:16.047Z,16.20
2022-08-17T03:12:18.088Z,16.20
2022-08-17T03:16:20.072Z,16.30
2022-08-17T03:20:22.677Z,16.20
2022-08-17T03:24:28.673Z,16.10
2022-08-17T03:28:30.889Z,16.10
2022-08-17T03:32:45.452Z,16.10
2022-08-17T03:36:47.351Z,16.10
2022-08-17T03:40:56.941Z,16.10
2022-08-17T03:45:02.249Z,16.20
2022-08-17T03:49:25.268Z,16.30
2022-08-17T03:53:45.694Z,16.20
2022-08-17T03:57:48.958Z,16.20
2022-08-17T04:01:53.887Z,16.20
2022-08-17T04:05:56.467Z,16.10
2022-08-17T04:09:59.497Z,16.20
2022-08-17T04:14:02.599Z,16.30
2022-08-17T04:18:04.573Z,16.30
2022-08-17T04:22:06.771Z,16.30
2022-08-17T04:26:08.743Z,16.30
2022-08-17T04:30:11.331Z,16.20
2022-08-17T04:34:13.215Z,16.30
2022-08-17T04:38:18.674Z,16.50
2022-08-17T04:42:20.591Z,16.50
2022-08-17T04:46:34.372Z,16.60
2022-08-17T04:50:39.879Z,16.70
2022-08-17T04:54:41.808Z,16.90
2022-08-17T04:58:52.830Z,16.70
2022-08-17T05:02:56.281Z,16.70
2022-08-17T05:06:58.864Z,16.60
2022-08-17T05:11:00.991Z,16.60
2022-08-17T05:15:02.960Z,16.50
2022-08-17T05:19:04.948Z,15.50
2022-08-17T05:23:09.890Z,16.60
2022-08-17T05:27:18.694Z,16.70
2022-08-17T05:31:21.100Z,16.60
2022-08-17T05:35:24.116Z,16.60
2022-08-17T05:39:26.342Z,16.70
2022-08-17T05:43:30.891Z,16.70
2022-08-17T05:47:32.915Z,16.70
2022-08-17T05:51:50.115Z,16.90
2022-08-17T05:55:51.993Z,17.20
2022-08-17T06:00:18.359Z,17.20
2022-08-17T06:04:54.194Z,17.30
2022-08-17T06:09:14.163Z,17.50
2022-08-17T06:13:54.953Z,17.60
2022-08-17T06:18:01.979Z,17.80
2022-08-17T06:22:06.247Z,18.00
2022-08-17T06:26:39.616Z,18.10
2022-08-17T06:30:59.790Z,18.30
2022-08-17T06:35:04.554Z,18.60
2022-08-17T06:39:30.839Z,19.10
2022-08-17T06:43:48.185Z,19.60
2022-08-17T06:47:56.828Z,19.90
2022-08-17T06:52:55.727Z,20.40
2022-08-17T06:57:04.521Z,20.60
2022-08-17T07:01:26.963Z,20.90
2022-08-17T07:05:42.437Z,21.00
2022-08-17T07:09:46.086Z,20.90
2022-08-17T07:14:20.164Z,21.00
2022-08-17T07:18:25.559Z,21.10
2022-08-17T07:22:59.551Z,21.80
2022-08-17T07:27:08.914Z,22.40
2022-08-17T07:31:13.426Z,23.00
2022-08-17T07:35:40.742Z,23.90
2022-08-17T07:39:59.661Z,24.60
2022-08-17T07:44:12.474Z,25.20
2022-08-17T07:48:21.408Z,25.40
2022-08-17T07:52:51.126Z,26.80
2022-08-17T07:56:58.252Z,28.20
2022-08-17T08:01:10.254Z,29.90
2022-08-17T08:05:48.710Z,31.40
2022-08-17T08:10:10.755Z,31.50
2022-08-17T08:14:29.675Z,31.80
2022-08-17T08:18:54.750Z,31.80
2022-08-17T08:23:29.565Z,31.80
2022-08-17T08:27:58.011Z,32.40
2022-08-17T08:32:08.027Z,34.10
2022-08-17T08:36:59.326Z,33.90
2022-08-17T08:41:33.703Z,33.50
2022-08-17T08:46:03.166Z,33.80
2022-08-17T08:50:37.110Z,34.70
2022-08-17T08:54:35.155Z,35.00
2022-08-17T08:58:47.290Z,35.20
2022-08-17T09:03:03.120Z,35.20
2022-08-17T09:07:28.202Z,35.50
2022-08-17T09:12:02.109Z,35.60
2022-08-17T09:16:36.138Z,35.70
2022-08-17T09:20:50.242Z,36.20
2022-08-17T09:25:12.593Z,37.50
2022-08-17T09:29:16.960Z,38.10
2022-08-17T09:33:29.062Z,38.00
2022-08-17T09:38:04.803Z,37.60
2022-08-17T09:42:26.997Z,37.50
2022-08-17T09:46:39.029Z,37.70
2022-08-17T09:51:07.151Z,37.80
2022-08-17T09:55:09.638Z,38.30
2022-08-17T09:59:20.356Z,38.40
2022-08-17T10:03:28.690Z,38.00
2022-08-17T10:07:40.693Z,36.90
2022-08-17T10:12:17.785Z,37.40
2022-08-17T10:16:40.036Z,38.10
2022-08-17T10:20:45.610Z,38.20
2022-08-17T10:25:22.349Z,38.10
2022-08-17T10:29:49.801Z,38.70
2022-08-17T10:34:19.099Z,39.40
2022-08-17T10:38:31.951Z,39.20
2022-08-17T10:42:56.961Z,39.50
2022-08-17T10:47:15.121Z,38.80
2022-08-17T10:51:38.302Z,39.40
2022-08-17T10:55:41.945Z,39.30
2022-08-17T10:59:43.826Z,39.30
2022-08-17T11:03:54.843Z,39.50
2022-08-17T11:08:32.424Z,39.70
2022-08-17T11:13:05.808Z,39.70
2022-08-17T11:17:26.534Z,39.70
2022-08-17T11:21:56.228Z,39.90
2022-08-17T11:26:08.367Z,39.70
2022-08-17T11:30:47.020Z,39.50
2022-08-17T11:35:05.447Z,39.40
2022-08-17T11:39:32.305Z,39.20
2022-08-17T11:44:11.636Z,38.80
2022-08-17T11:48:38.765Z,38.70
2022-08-17T11:52:46.703Z,38.20
2022-08-17T11:56:51.192Z,38.50
2022-08-17T12:00:57.281Z,38.30
2022-08-17T12:05:17.368Z,38.10
2022-08-17T12:09:21.550Z,38.10
2022-08-17T12:13:35.217Z,37.80
2022-08-17T12:17:43.773Z,37.50
2022-08-17T12:22:00.093Z,37.10
2022-08-17T12:26:01.867Z,36.80
2022-08-17T12:30:12.373Z,36.70
2022-08-17T12:34:42.100Z,36.80
2022-08-17T12:39:13.847Z,36.50
2022-08-17T12:43:22.676Z,36.30
2022-08-17T12:47:25.881Z,35.90
2022-08-17T12:51:31.832Z,35.60
2022-08-17T12:55:37.223Z,35.40
2022-08-17T12:59:46.187Z,35.30
2022-08-17T13:03:59.773Z,35.00
2022-08-17T13:08:05.947Z,34.80
2022-08-17T13:12:08.221Z,34.50
2022-08-17T13:16:14.245Z,34.50
2022-08-17T13:20:16.274Z,34.50
2022-08-17T13:24:30.594Z,34.30
2022-08-17T13:28:50.133Z,34.30
2022-08-17T13:32:53.927Z,34.40
2022-08-17T13:37:29.674Z,34.40
2022-08-17T13:41:37.162Z,34.40
2022-08-17T13:45:50.359Z,34.40
2022-08-17T13:49:53.377Z,34.50
2022-08-17T13:54:01.589Z,34.50
2022-08-17T13:58:07.072Z,34.30
2022-08-17T14:02:11.203Z,33.80
2022-08-17T14:06:13.177Z,33.60
2022-08-17T14:10:36.665Z,33.60
2022-08-17T14:14:39.444Z,33.60
2022-08-17T14:18:56.687Z,33.30
2022-08-17T14:22:59.320Z,33.40
2022-08-17T14:27:03.659Z,33.70
2022-08-17T14:31:10.638Z,33.70
2022-08-17T14:35:14.702Z,33.80
2022-08-17T14:39:18.536Z,33.80
2022-08-17T14:43:21.097Z,33.70
2022-08-17T14:47:23.063Z,33.80
2022-08-17T14:51:27.646Z,33.60
2022-08-17T14:55:30.605Z,33.50
2022-08-17T14:59:32.587Z,33.50
2022-08-17T15:03:34.552Z,33.50
2022-08-17T15:07:36.538Z,33.40
2022-08-17T15:11:38.660Z,33.30
2022-08-17T15:15:40.588Z,33.20
2022-08-17T15:19:42.495Z,32.90
2022-08-17T15:23:44.656Z,33.00
2022-08-17T15:27:47.613Z,32.90
2022-08-17T15:31:49.674Z,32.90
2022-08-17T15:35:53.586Z,32.90
2022-08-17T15:39:56.081Z,32.50
2022-08-17T15:43:58.235Z,32.50
2022-08-17T15:48:00.616Z,32.60
2022-08-17T15:52:19.579Z,32.40
2022-08-17T15:56:21.916Z,31.90
2022-08-17T16:00:24.163Z,31.50
2022-08-17T16:04:30.152Z,31.10
2022-08-17T16:08:33.301Z,30.90
2022-08-17T16:12:36.060Z,30.30
2022-08-17T16:16:38.502Z,29.80
2022-08-17T16:20:40.486Z,29.70
2022-08-17T16:24:47.848Z,29.70
2022-08-17T16:29:01.659Z,29.20
2022-08-17T16:33:03.702Z,28.90
2022-08-17T16:37:05.659Z,28.80
2022-08-17T16:41:07.656Z,28.40
2022-08-17T16:45:19.650Z,28.20
2022-08-17T16:49:24.458Z,28.00
2022-08-17T16:53:39.555Z,28.00
2022-08-17T16:57:47.407Z,28.00
2022-08-17T17:01:52.719Z,28.00
2022-08-17T17:06:27.843Z,28.00
2022-08-17T17:10:50.873Z,27.90
2022-08-17T17:14:57.154Z,27.70
2022-08-17T17:19:38.562Z,27.70
2022-08-17T17:23:48.569Z,27.70
2022-08-17T17:28:38.394Z,27.60
2022-08-17T17:32:50.731Z,27.50
2022-08-17T17:36:56.559Z,27.10
2022-08-17T17:41:08.689Z,27.00
2022-08-17T17:45:25.946Z,26.80
2022-08-17T17:49:33.368Z,26.60
2022-08-17T17:53:55.394Z,26.50
2022-08-17T17:58:19.725Z,26.30
2022-08-17T18:02:51.547Z,26.10
2022-08-17T18:07:17.988Z,26.20
2022-08-17T18:11:34.865Z,26.00
2022-08-17T18:15:40.633Z,25.70
2022-08-17T18:19:42.552Z,25.70
2022-08-17T18:24:05.417Z,25.60
2022-08-17T18:28:09.196Z,25.30
2022-08-17T18:32:30.010Z,25.30
2022-08-17T18:36:36.446Z,25.10
2022-08-17T18:40:38.612Z,25.00
2022-08-17T18:44:40.488Z,24.60
2022-08-17T18:48:54.178Z,24.50
2022-08-17T18:53:33.275Z,24.20
2022-08-17T18:57:46.732Z,24.20
2022-08-17T19:02:05.036Z,24.20
2022-08-17T19:06:22.170Z,24.10
2022-08-17T19:10:46.107Z,24.00
2022-08-17T19:14:51.940Z,24.00
2022-08-17T19:19:06.951Z,23.70
2022-08-17T19:23:34.104Z,23.60
2022-08-17T19:28:01.738Z,23.80
2022-08-17T19:32:08.970Z,23.60
2022-08-17T19:36:32.898Z,23.40
2022-08-17T19:41:11.324Z,23.30
2022-08-17T19:45:29.791Z,23.40
2022-08-17T19:49:55.555Z,23.40
2022-08-17T19:54:15.123Z,23.40
2022-08-17T19:58:35.862Z,23.20
2022-08-17T20:02:59.492Z,23.40
2022-08-17T20:07:11.324Z,23.50
2022-08-17T20:11:52.215Z,23.40
2022-08-17T20:15:54.156Z,23.50
2022-08-17T20:20:20.236Z,23.60
2022-08-17T20:24:35.387Z,23.40
2022-08-17T20:28:39.102Z,23.40
2022-08-17T20:33:07.258Z,23.50
2022-08-17T20:37:09.576Z,23.40
2022-08-17T20:41:14.836Z,23.40
2022-08-17T20:45:25.137Z,23.60
2022-08-17T20:49:31.309Z,23.30
2022-08-17T20:53:48.507Z,23.20
2022-08-17T20:57:50.547Z,23.20
2022-08-17T21:02:18.829Z,23.10
2022-08-17T21:06:23.243Z,23.10
2022-08-17T21:10:25.107Z,23.10
2022-08-17T21:14:26.976Z,23.00
2022-08-17T21:18:58.269Z,22.90
2022-08-17T21:23:12.399Z,22.80
2022-08-17T21:27:20.445Z,22.80
2022-08-17T21:31:50.673Z,22.80
2022-08-17T21:35:52.628Z,22.90
2022-08-17T21:40:13.219Z,23.00
2022-08-17T21:44:17.994Z,22.80
2022-08-17T21:48:24.174Z,22.70
2022-08-17T21:52:27.702Z,22.90
2022-08-17T21:56:31.664Z,22.90
2022-08-17T22:00:34.628Z,22.90
2022-08-17T22:04:42.024Z,23.10
2022-08-17T22:09:02.381Z,23.00
2022-08-17T22:13:05.925Z,22.90
2022-08-17T22:17:21.127Z,22.90
2022-08-17T22:21:24.655Z,22.80
2022-08-17T22:25:29.547Z,22.60
2022-08-17T22:30:00.675Z,22.30
2022-08-17T22:34:02.562Z,22.00
2022-08-17T22:38:19.434Z,21.70
2022-08-17T22:42:21.332Z,21.60
2022-08-17T22:46:25.650Z,21.60
2022-08-17T22:50:33.131Z,21.70
2022-08-17T22:54:53.554Z,21.40
2022-08-17T22:59:16.553Z,21.40
2022-08-17T23:03:23.171Z,21.50
2022-08-17T23:07:25.160Z,21.40
2022-08-17T23:11:36.578Z,21.40
2022-08-17T23:15:51.576Z,21.70
2022-08-17T23:19:55.546Z,21.60
2022-08-17T23:23:59.152Z,21.60
2022-08-17T23:28:02.499Z,21.70
2022-08-17T23:32:05.243Z,21.80
2022-08-17T23:36:09.807Z,21.50
2022-08-17T23:40:11.957Z,21.40
2022-08-17T23:44:14.817Z,19.90
2022-08-17T23:48:27.794Z,21.30
2022-08-17T23:52:41.225Z,21.10
2022-08-17T23:56:46.734Z,20.60
